La Mirada, California
Current Conditions -  °F | °C
As of 12:15 PM on Saturday 20 Dec 2014 (Local Time) from KFUL Reporting Station
Broken Clouds Broken Clouds  
Wind Chill: 62°   Ceiling: 2900
Heat Index: 62°   Visibility: 10mi
Dew Point: 48°   Wind: 0mph
Humidity: 60%   Direction: NA
Pressure: 30.15"   Gusts: NA
Location:  33.91°N, 118.01°W
Report Text: KFUL 202015Z 00000KT 10SM BKN029 17/09 A3015 RMK AO2 T01670089
Loading
Personal Weather Stations






























Interactive Weather Map New forecast layout! Learn more

10-Day Weather Forecast

Advertisements
Track Severe Weather on mobile